sensor_id;sensor_type;location;lat;lon;timestamp;P1;durP1;ratioP1;P2;durP2;ratioP2
62151;SDS011;48139;47.474;19.034;2022-10-17T03:46:17;15.52;;;11.40;;
62151;SDS011;48139;47.474;19.034;2022-10-17T03:49:21;19.08;;;12.63;;
62151;SDS011;48139;47.474;19.034;2022-10-17T03:52:24;18.98;;;11.60;;
62151;SDS011;48139;47.474;19.034;2022-10-17T03:55:28;20.08;;;11.15;;
62151;SDS011;48139;47.474;19.034;2022-10-17T03:58:30;16.43;;;11.00;;
62151;SDS011;48139;47.474;19.034;2022-10-17T04:01:34;16.05;;;10.18;;
62151;SDS011;48139;47.474;19.034;2022-10-17T04:04:37;17.17;;;11.77;;
62151;SDS011;48139;47.474;19.034;2022-10-17T04:07:40;20.00;;;10.52;;
62151;SDS011;48139;47.474;19.034;2022-10-17T04:10:43;16.55;;;10.35;;
62151;SDS011;48139;47.474;19.034;2022-10-17T04:13:46;16.55;;;9.90;;
62151;SDS011;48139;47.474;19.034;2022-10-17T04:16:49;18.85;;;11.88;;
62151;SDS011;48139;47.474;19.034;2022-10-17T04:19:52;18.67;;;9.63;;
62151;SDS011;48139;47.474;19.034;2022-10-17T04:22:56;15.77;;;10.32;;
62151;SDS011;48139;47.474;19.034;2022-10-17T04:25:59;14.63;;;10.52;;
62151;SDS011;48139;47.474;19.034;2022-10-17T04:29:03;12.37;;;9.25;;
62151;SDS011;48139;47.474;19.034;2022-10-17T04:32:06;14.52;;;9.77;;
62151;SDS011;48139;47.474;19.034;2022-10-17T04:35:08;16.85;;;11.55;;
62151;SDS011;48139;47.474;19.034;2022-10-17T04:38:12;21.02;;;12.10;;
62151;SDS011;48139;47.474;19.034;2022-10-17T04:41:15;15.67;;;9.23;;
62151;SDS011;48139;47.474;19.034;2022-10-17T04:44:19;15.35;;;8.98;;
62151;SDS011;48139;47.474;19.034;2022-10-17T04:47:22;19.85;;;10.93;;
62151;SDS011;48139;47.474;19.034;2022-10-17T04:50:25;15.70;;;10.50;;
62151;SDS011;48139;47.474;19.034;2022-10-17T04:53:37;14.07;;;10.07;;
62151;SDS011;48139;47.474;19.034;2022-10-17T04:56:40;17.87;;;10.98;;
62151;SDS011;48139;47.474;19.034;2022-10-17T04:59:43;16.17;;;10.30;;
62151;SDS011;48139;47.474;19.034;2022-10-17T05:02:46;16.40;;;11.70;;
62151;SDS011;48139;47.474;19.034;2022-10-17T05:05:49;18.77;;;12.17;;
62151;SDS011;48139;47.474;19.034;2022-10-17T05:08:51;19.03;;;11.40;;
62151;SDS011;48139;47.474;19.034;2022-10-17T05:11:54;17.73;;;11.32;;
62151;SDS011;48139;47.474;19.034;2022-10-17T05:14:56;17.55;;;12.13;;
62151;SDS011;48139;47.474;19.034;2022-10-17T05:18:00;18.33;;;11.07;;
62151;SDS011;48139;47.474;19.034;2022-10-17T05:21:04;19.85;;;12.07;;
62151;SDS011;48139;47.474;19.034;2022-10-17T05:24:07;16.30;;;10.02;;
62151;SDS011;48139;47.474;19.034;2022-10-17T05:27:12;17.33;;;10.68;;
62151;SDS011;48139;47.474;19.034;2022-10-17T05:30:15;17.40;;;11.10;;
62151;SDS011;48139;47.474;19.034;2022-10-17T05:33:18;16.73;;;12.32;;
62151;SDS011;48139;47.474;19.034;2022-10-17T05:36:20;27.93;;;15.97;;
62151;SDS011;48139;47.474;19.034;2022-10-17T05:39:23;27.70;;;15.27;;
62151;SDS011;48139;47.474;19.034;2022-10-17T05:42:26;27.83;;;14.85;;
62151;SDS011;48139;47.474;19.034;2022-10-17T05:45:31;19.73;;;12.18;;
62151;SDS011;48139;47.474;19.034;2022-10-17T05:48:35;23.50;;;15.10;;
62151;SDS011;48139;47.474;19.034;2022-10-17T05:51:38;22.08;;;13.00;;
62151;SDS011;48139;47.474;19.034;2022-10-17T05:57:45;16.35;;;11.63;;
62151;SDS011;48139;47.474;19.034;2022-10-17T06:00:48;14.80;;;11.68;;
62151;SDS011;48139;47.474;19.034;2022-10-17T06:03:51;23.65;;;11.10;;
62151;SDS011;48139;47.474;19.034;2022-10-17T06:09:57;18.10;;;11.03;;
62151;SDS011;48139;47.474;19.034;2022-10-17T06:13:00;19.73;;;12.50;;
62151;SDS011;48139;47.474;19.034;2022-10-17T06:16:03;17.95;;;11.75;;
62151;SDS011;48139;47.474;19.034;2022-10-17T06:19:05;17.95;;;10.85;;
62151;SDS011;48139;47.474;19.034;2022-10-17T06:22:08;17.77;;;11.30;;
62151;SDS011;48139;47.474;19.034;2022-10-17T06:25:11;18.83;;;12.35;;
62151;SDS011;48139;47.474;19.034;2022-10-17T06:28:15;21.83;;;11.65;;
62151;SDS011;48139;47.474;19.034;2022-10-17T06:31:17;17.92;;;10.40;;
62151;SDS011;48139;47.474;19.034;2022-10-17T06:34:20;29.63;;;13.73;;
62151;SDS011;48139;47.474;19.034;2022-10-17T06:37:23;27.17;;;12.07;;
62151;SDS011;48139;47.474;19.034;2022-10-17T06:40:27;18.50;;;11.55;;
62151;SDS011;48139;47.474;19.034;2022-10-17T06:43:29;17.45;;;12.20;;
62151;SDS011;48139;47.474;19.034;2022-10-17T06:46:32;20.95;;;12.02;;
62151;SDS011;48139;47.474;19.034;2022-10-17T06:49:34;15.95;;;12.15;;
62151;SDS011;48139;47.474;19.034;2022-10-17T06:52:38;18.77;;;11.77;;
62151;SDS011;48139;47.474;19.034;2022-10-17T06:55:42;20.60;;;12.73;;
62151;SDS011;48139;47.474;19.034;2022-10-17T06:58:45;28.08;;;13.07;;
62151;SDS011;48139;47.474;19.034;2022-10-17T07:01:52;19.73;;;13.23;;
62151;SDS011;48139;47.474;19.034;2022-10-17T07:04:57;19.12;;;12.30;;
62151;SDS011;48139;47.474;19.034;2022-10-17T07:07:59;19.35;;;13.25;;
62151;SDS011;48139;47.474;19.034;2022-10-17T07:11:14;17.40;;;12.43;;
62151;SDS011;48139;47.474;19.034;2022-10-17T07:14:17;17.37;;;13.30;;
62151;SDS011;48139;47.474;19.034;2022-10-17T07:17:20;24.43;;;12.97;;
62151;SDS011;48139;47.474;19.034;2022-10-17T07:20:23;18.25;;;12.60;;
62151;SDS011;48139;47.474;19.034;2022-10-17T07:23:26;22.40;;;13.60;;
62151;SDS011;48139;47.474;19.034;2022-10-17T07:26:28;24.57;;;12.87;;
62151;SDS011;48139;47.474;19.034;2022-10-17T07:29:31;25.70;;;13.82;;
62151;SDS011;48139;47.474;19.034;2022-10-17T07:32:34;20.40;;;13.88;;
62151;SDS011;48139;47.474;19.034;2022-10-17T07:35:37;26.30;;;13.77;;
62151;SDS011;48139;47.474;19.034;2022-10-17T07:38:42;20.70;;;13.88;;
62151;SDS011;48139;47.474;19.034;2022-10-17T07:41:45;26.45;;;15.25;;
62151;SDS011;48139;47.474;19.034;2022-10-17T07:44:52;22.60;;;12.27;;
62151;SDS011;48139;47.474;19.034;2022-10-17T07:47:57;21.58;;;12.27;;
62151;SDS011;48139;47.474;19.034;2022-10-17T07:51:01;18.42;;;11.25;;
62151;SDS011;48139;47.474;19.034;2022-10-17T07:54:04;18.87;;;11.20;;
62151;SDS011;48139;47.474;19.034;2022-10-17T07:57:07;18.10;;;11.68;;
62151;SDS011;48139;47.474;19.034;2022-10-17T08:00:12;21.85;;;14.05;;
62151;SDS011;48139;47.474;19.034;2022-10-17T08:03:15;18.23;;;13.60;;
62151;SDS011;48139;47.474;19.034;2022-10-17T08:06:18;21.83;;;11.90;;
62151;SDS011;48139;47.474;19.034;2022-10-17T08:09:20;19.10;;;12.10;;
62151;SDS011;48139;47.474;19.034;2022-10-17T08:12:23;19.62;;;12.25;;
62151;SDS011;48139;47.474;19.034;2022-10-17T08:15:27;18.50;;;13.30;;
62151;SDS011;48139;47.474;19.034;2022-10-17T08:18:33;18.67;;;12.80;;
62151;SDS011;48139;47.474;19.034;2022-10-17T08:21:37;20.75;;;12.93;;
62151;SDS011;48139;47.474;19.034;2022-10-17T08:24:39;16.58;;;11.63;;
62151;SDS011;48139;47.474;19.034;2022-10-17T08:27:44;22.67;;;12.48;;
62151;SDS011;48139;47.474;19.034;2022-10-17T08:30:46;25.57;;;13.60;;
62151;SDS011;48139;47.474;19.034;2022-10-17T08:33:49;26.23;;;13.93;;
62151;SDS011;48139;47.474;19.034;2022-10-17T08:36:52;22.10;;;12.40;;
62151;SDS011;48139;47.474;19.034;2022-10-17T08:39:54;21.48;;;11.93;;
62151;SDS011;48139;47.474;19.034;2022-10-17T08:46:13;29.20;;;14.43;;
62151;SDS011;48139;47.474;19.034;2022-10-17T08:49:27;19.90;;;12.70;;
62151;SDS011;48139;47.474;19.034;2022-10-17T08:56:22;22.83;;;12.82;;
62151;SDS011;48139;47.474;19.034;2022-10-17T08:59:51;19.98;;;13.77;;
62151;SDS011;48139;47.474;19.034;2022-10-17T09:02:59;21.02;;;14.25;;
62151;SDS011;48139;47.474;19.034;2022-10-17T09:06:28;21.30;;;13.75;;
62151;SDS011;48139;47.474;19.034;2022-10-17T09:09:45;19.98;;;13.35;;
62151;SDS011;48139;47.474;19.034;2022-10-17T09:23:17;25.37;;;12.68;;
62151;SDS011;48139;47.474;19.034;2022-10-17T09:26:29;22.10;;;14.23;;
62151;SDS011;48139;47.474;19.034;2022-10-17T09:29:32;17.30;;;10.30;;
62151;SDS011;48139;47.474;19.034;2022-10-17T09:32:41;15.68;;;9.05;;
62151;SDS011;48139;47.474;19.034;2022-10-17T09:35:44;16.85;;;8.15;;
62151;SDS011;48139;47.474;19.034;2022-10-17T09:38:51;15.13;;;9.70;;
62151;SDS011;48139;47.474;19.034;2022-10-17T09:41:57;15.45;;;8.60;;
62151;SDS011;48139;47.474;19.034;2022-10-17T09:51:18;14.05;;;7.78;;
62151;SDS011;48139;47.474;19.034;2022-10-17T09:57:56;15.93;;;7.40;;
62151;SDS011;48139;47.474;19.034;2022-10-17T10:01:14;13.77;;;6.97;;
62151;SDS011;48139;47.474;19.034;2022-10-17T10:04:25;15.05;;;7.85;;
62151;SDS011;48139;47.474;19.034;2022-10-17T10:07:38;17.52;;;8.68;;
62151;SDS011;48139;47.474;19.034;2022-10-17T10:13:45;13.23;;;6.85;;
62151;SDS011;48139;47.474;19.034;2022-10-17T10:16:50;12.13;;;6.35;;
62151;SDS011;48139;47.474;19.034;2022-10-17T10:19:55;11.27;;;6.65;;
62151;SDS011;48139;47.474;19.034;2022-10-17T10:26:21;10.65;;;6.47;;
62151;SDS011;48139;47.474;19.034;2022-10-17T10:29:28;9.73;;;6.35;;
62151;SDS011;48139;47.474;19.034;2022-10-17T10:32:32;9.32;;;6.05;;
62151;SDS011;48139;47.474;19.034;2022-10-17T10:35:38;10.23;;;5.65;;
62151;SDS011;48139;47.474;19.034;2022-10-17T10:38:40;15.43;;;6.55;;
62151;SDS011;48139;47.474;19.034;2022-10-17T10:41:47;8.68;;;5.22;;
62151;SDS011;48139;47.474;19.034;2022-10-17T10:44:49;11.77;;;5.90;;
62151;SDS011;48139;47.474;19.034;2022-10-17T10:47:55;10.15;;;4.82;;
62151;SDS011;48139;47.474;19.034;2022-10-17T10:54:22;14.75;;;5.82;;
62151;SDS011;48139;47.474;19.034;2022-10-17T10:57:28;9.60;;;4.75;;
62151;SDS011;48139;47.474;19.034;2022-10-17T11:00:34;11.68;;;5.43;;
62151;SDS011;48139;47.474;19.034;2022-10-17T11:03:41;15.43;;;7.90;;
62151;SDS011;48139;47.474;19.034;2022-10-17T11:06:56;11.63;;;5.10;;
62151;SDS011;48139;47.474;19.034;2022-10-17T11:13:57;9.30;;;5.12;;
62151;SDS011;48139;47.474;19.034;2022-10-17T11:20:18;11.82;;;4.97;;
62151;SDS011;48139;47.474;19.034;2022-10-17T11:26:49;8.52;;;4.47;;
62151;SDS011;48139;47.474;19.034;2022-10-17T11:29:56;9.73;;;4.82;;
62151;SDS011;48139;47.474;19.034;2022-10-17T11:33:00;14.05;;;7.62;;
62151;SDS011;48139;47.474;19.034;2022-10-17T11:36:04;8.70;;;4.68;;
62151;SDS011;48139;47.474;19.034;2022-10-17T11:39:11;8.30;;;5.32;;
62151;SDS011;48139;47.474;19.034;2022-10-17T11:42:20;11.48;;;5.30;;
62151;SDS011;48139;47.474;19.034;2022-10-17T11:45:41;9.43;;;4.97;;
62151;SDS011;48139;47.474;19.034;2022-10-17T11:55:38;7.57;;;4.57;;
62151;SDS011;48139;47.474;19.034;2022-10-17T12:02:03;9.18;;;4.15;;
62151;SDS011;48139;47.474;19.034;2022-10-17T12:05:37;10.23;;;4.55;;
62151;SDS011;48139;47.474;19.034;2022-10-17T12:08:57;12.27;;;4.57;;
62151;SDS011;48139;47.474;19.034;2022-10-17T12:12:08;8.52;;;4.53;;
62151;SDS011;48139;47.474;19.034;2022-10-17T12:18:26;13.82;;;5.25;;
62151;SDS011;48139;47.474;19.034;2022-10-17T12:21:28;10.63;;;4.40;;
62151;SDS011;48139;47.474;19.034;2022-10-17T12:25:01;7.90;;;4.47;;
62151;SDS011;48139;47.474;19.034;2022-10-17T12:31:09;7.57;;;4.70;;
62151;SDS011;48139;47.474;19.034;2022-10-17T12:34:24;6.00;;;3.85;;
62151;SDS011;48139;47.474;19.034;2022-10-17T12:43:51;8.40;;;5.18;;
62151;SDS011;48139;47.474;19.034;2022-10-17T12:50:33;8.53;;;4.23;;
62151;SDS011;48139;47.474;19.034;2022-10-17T12:53:56;8.70;;;4.62;;
62151;SDS011;48139;47.474;19.034;2022-10-17T12:56:59;7.50;;;4.05;;
62151;SDS011;48139;47.474;19.034;2022-10-17T13:00:26;8.63;;;4.60;;
62151;SDS011;48139;47.474;19.034;2022-10-17T13:03:32;7.45;;;4.20;;
62151;SDS011;48139;47.474;19.034;2022-10-17T13:06:47;9.38;;;3.80;;
62151;SDS011;48139;47.474;19.034;2022-10-17T13:09:54;7.40;;;3.95;;
62151;SDS011;48139;47.474;19.034;2022-10-17T13:13:00;7.85;;;4.32;;
62151;SDS011;48139;47.474;19.034;2022-10-17T13:16:07;7.18;;;3.90;;
62151;SDS011;48139;47.474;19.034;2022-10-17T13:19:15;8.80;;;4.47;;
62151;SDS011;48139;47.474;19.034;2022-10-17T13:22:25;9.00;;;4.57;;
62151;SDS011;48139;47.474;19.034;2022-10-17T13:25:30;9.18;;;4.05;;
62151;SDS011;48139;47.474;19.034;2022-10-17T13:28:32;6.90;;;3.62;;
62151;SDS011;48139;47.474;19.034;2022-10-17T13:31:41;9.55;;;5.15;;
62151;SDS011;48139;47.474;19.034;2022-10-17T13:34:45;9.45;;;3.35;;
62151;SDS011;48139;47.474;19.034;2022-10-17T13:37:48;8.82;;;3.85;;
62151;SDS011;48139;47.474;19.034;2022-10-17T13:40:55;7.37;;;3.60;;
62151;SDS011;48139;47.474;19.034;2022-10-17T13:44:17;10.85;;;4.10;;
62151;SDS011;48139;47.474;19.034;2022-10-17T13:47:23;10.40;;;4.65;;
62151;SDS011;48139;47.474;19.034;2022-10-17T13:50:40;12.00;;;5.72;;
62151;SDS011;48139;47.474;19.034;2022-10-17T13:53:46;8.40;;;4.97;;
62151;SDS011;48139;47.474;19.034;2022-10-17T13:56:54;9.95;;;4.25;;
62151;SDS011;48139;47.474;19.034;2022-10-17T14:00:03;8.93;;;4.82;;
62151;SDS011;48139;47.474;19.034;2022-10-17T14:03:13;8.18;;;4.07;;
62151;SDS011;48139;47.474;19.034;2022-10-17T14:09:26;11.93;;;4.87;;
62151;SDS011;48139;47.474;19.034;2022-10-17T14:12:31;12.73;;;4.53;;
62151;SDS011;48139;47.474;19.034;2022-10-17T14:15:35;11.07;;;4.50;;
62151;SDS011;48139;47.474;19.034;2022-10-17T14:18:38;11.40;;;5.25;;
62151;SDS011;48139;47.474;19.034;2022-10-17T14:24:49;8.02;;;4.35;;
62151;SDS011;48139;47.474;19.034;2022-10-17T14:27:55;6.90;;;3.92;;
62151;SDS011;48139;47.474;19.034;2022-10-17T14:31:09;11.77;;;5.25;;
62151;SDS011;48139;47.474;19.034;2022-10-17T14:34:22;8.88;;;4.72;;
62151;SDS011;48139;47.474;19.034;2022-10-17T14:37:40;7.65;;;4.12;;
62151;SDS011;48139;47.474;19.034;2022-10-17T14:40:49;10.85;;;4.40;;
62151;SDS011;48139;47.474;19.034;2022-10-17T14:43:55;8.68;;;4.57;;
62151;SDS011;48139;47.474;19.034;2022-10-17T14:47:04;11.60;;;4.45;;
62151;SDS011;48139;47.474;19.034;2022-10-17T14:50:30;7.40;;;4.78;;
62151;SDS011;48139;47.474;19.034;2022-10-17T14:53:34;7.82;;;4.80;;
62151;SDS011;48139;47.474;19.034;2022-10-17T14:56:41;7.43;;;4.18;;
62151;SDS011;48139;47.474;19.034;2022-10-17T14:59:44;9.32;;;4.50;;
62151;SDS011;48139;47.474;19.034;2022-10-17T15:02:56;10.13;;;5.55;;
62151;SDS011;48139;47.474;19.034;2022-10-17T15:06:08;7.93;;;4.78;;
62151;SDS011;48139;47.474;19.034;2022-10-17T15:09:18;14.15;;;5.05;;
62151;SDS011;48139;47.474;19.034;2022-10-17T15:12:21;13.73;;;5.12;;
62151;SDS011;48139;47.474;19.034;2022-10-17T15:15:29;14.87;;;6.55;;
62151;SDS011;48139;47.474;19.034;2022-10-17T15:18:32;9.32;;;5.55;;
62151;SDS011;48139;47.474;19.034;2022-10-17T15:21:35;10.48;;;5.12;;
62151;SDS011;48139;47.474;19.034;2022-10-17T15:24:45;10.07;;;5.03;;
62151;SDS011;48139;47.474;19.034;2022-10-17T15:30:51;9.85;;;5.50;;
62151;SDS011;48139;47.474;19.034;2022-10-17T15:33:54;12.45;;;5.90;;
62151;SDS011;48139;47.474;19.034;2022-10-17T15:36:56;10.93;;;5.60;;
62151;SDS011;48139;47.474;19.034;2022-10-17T15:40:00;12.55;;;5.37;;
62151;SDS011;48139;47.474;19.034;2022-10-17T15:43:02;11.15;;;4.93;;
62151;SDS011;48139;47.474;19.034;2022-10-17T15:46:09;11.12;;;5.65;;
62151;SDS011;48139;47.474;19.034;2022-10-17T15:49:15;10.10;;;5.78;;
62151;SDS011;48139;47.474;19.034;2022-10-17T15:52:20;9.88;;;5.47;;
62151;SDS011;48139;47.474;19.034;2022-10-17T15:55:23;11.38;;;5.70;;
62151;SDS011;48139;47.474;19.034;2022-10-17T15:58:27;12.60;;;6.12;;
